sensor_id;sensor_type;location;lat;lon;timestamp;P1;durP1;ratioP1;P2;durP2;ratioP2
6111;SDS011;3086;48.802;9.394;2023-04-01T00:00:23;2.30;;;1.60;;
6111;SDS011;3086;48.802;9.394;2023-04-01T00:03:46;1.70;;;1.53;;
6111;SDS011;3086;48.802;9.394;2023-04-01T00:07:08;1.70;;;1.60;;
6111;SDS011;3086;48.802;9.394;2023-04-01T00:10:30;3.50;;;1.60;;
6111;SDS011;3086;48.802;9.394;2023-04-01T00:13:52;1.70;;;1.60;;
6111;SDS011;3086;48.802;9.394;2023-04-01T00:17:14;1.60;;;1.50;;
6111;SDS011;3086;48.802;9.394;2023-04-01T00:20:37;2.37;;;1.57;;
6111;SDS011;3086;48.802;9.394;2023-04-01T00:23:59;2.67;;;1.70;;
6111;SDS011;3086;48.802;9.394;2023-04-01T00:27:20;2.03;;;1.43;;
6111;SDS011;3086;48.802;9.394;2023-04-01T00:30:42;3.43;;;1.73;;
6111;SDS011;3086;48.802;9.394;2023-04-01T00:34:03;2.43;;;1.87;;
6111;SDS011;3086;48.802;9.394;2023-04-01T00:37:26;3.73;;;1.80;;
6111;SDS011;3086;48.802;9.394;2023-04-01T00:40:48;2.50;;;1.80;;
6111;SDS011;3086;48.802;9.394;2023-04-01T00:44:11;1.90;;;1.77;;
6111;SDS011;3086;48.802;9.394;2023-04-01T00:47:36;2.40;;;1.57;;
6111;SDS011;3086;48.802;9.394;2023-04-01T00:50:58;1.90;;;1.70;;
6111;SDS011;3086;48.802;9.394;2023-04-01T00:54:22;1.70;;;1.60;;
6111;SDS011;3086;48.802;9.394;2023-04-01T00:57:45;1.80;;;1.67;;
6111;SDS011;3086;48.802;9.394;2023-04-01T01:01:07;2.47;;;1.73;;
6111;SDS011;3086;48.802;9.394;2023-04-01T01:04:30;2.87;;;1.70;;
6111;SDS011;3086;48.802;9.394;2023-04-01T01:07:54;3.80;;;1.77;;
6111;SDS011;3086;48.802;9.394;2023-04-01T01:11:24;3.03;;;1.97;;
6111;SDS011;3086;48.802;9.394;2023-04-01T01:14:52;1.77;;;1.53;;
6111;SDS011;3086;48.802;9.394;2023-04-01T01:18:18;2.47;;;1.93;;
6111;SDS011;3086;48.802;9.394;2023-04-01T01:21:48;3.60;;;1.90;;
6111;SDS011;3086;48.802;9.394;2023-04-01T01:25:32;3.73;;;1.83;;
6111;SDS011;3086;48.802;9.394;2023-04-01T01:29:01;1.57;;;1.47;;
6111;SDS011;3086;48.802;9.394;2023-04-01T01:32:36;1.90;;;1.63;;
6111;SDS011;3086;48.802;9.394;2023-04-01T01:36:05;2.23;;;1.70;;
6111;SDS011;3086;48.802;9.394;2023-04-01T01:39:29;1.93;;;1.73;;
6111;SDS011;3086;48.802;9.394;2023-04-01T01:42:53;3.33;;;1.90;;
6111;SDS011;3086;48.802;9.394;2023-04-01T01:46:18;3.10;;;1.77;;
6111;SDS011;3086;48.802;9.394;2023-04-01T01:49:41;2.33;;;1.47;;
6111;SDS011;3086;48.802;9.394;2023-04-01T01:53:05;1.43;;;1.30;;
6111;SDS011;3086;48.802;9.394;2023-04-01T01:56:27;1.60;;;1.50;;
6111;SDS011;3086;48.802;9.394;2023-04-01T01:59:50;3.07;;;1.47;;
6111;SDS011;3086;48.802;9.394;2023-04-01T02:03:13;1.63;;;1.53;;
6111;SDS011;3086;48.802;9.394;2023-04-01T02:06:37;2.60;;;1.90;;
6111;SDS011;3086;48.802;9.394;2023-04-01T02:10:01;1.90;;;1.60;;
6111;SDS011;3086;48.802;9.394;2023-04-01T02:13:25;1.67;;;1.50;;
6111;SDS011;3086;48.802;9.394;2023-04-01T02:16:49;2.43;;;1.70;;
6111;SDS011;3086;48.802;9.394;2023-04-01T02:20:16;3.80;;;1.50;;
6111;SDS011;3086;48.802;9.394;2023-04-01T02:23:38;2.37;;;1.53;;
6111;SDS011;3086;48.802;9.394;2023-04-01T02:27:02;1.40;;;1.30;;
6111;SDS011;3086;48.802;9.394;2023-04-01T02:30:24;1.70;;;1.60;;
6111;SDS011;3086;48.802;9.394;2023-04-01T02:33:48;2.43;;;1.33;;
6111;SDS011;3086;48.802;9.394;2023-04-01T02:37:10;2.10;;;1.50;;
6111;SDS011;3086;48.802;9.394;2023-04-01T02:40:40;1.50;;;1.40;;
6111;SDS011;3086;48.802;9.394;2023-04-01T02:44:07;1.50;;;1.40;;
6111;SDS011;3086;48.802;9.394;2023-04-01T02:47:29;1.70;;;1.40;;
6111;SDS011;3086;48.802;9.394;2023-04-01T02:50:50;1.27;;;1.23;;
6111;SDS011;3086;48.802;9.394;2023-04-01T02:54:12;1.40;;;1.30;;
6111;SDS011;3086;48.802;9.394;2023-04-01T02:57:33;1.50;;;1.40;;
6111;SDS011;3086;48.802;9.394;2023-04-01T03:00:56;3.13;;;2.83;;
6111;SDS011;3086;48.802;9.394;2023-04-01T03:04:18;1.40;;;1.30;;
6111;SDS011;3086;48.802;9.394;2023-04-01T03:07:39;1.40;;;1.30;;
6111;SDS011;3086;48.802;9.394;2023-04-01T03:11:01;1.40;;;1.40;;
6111;SDS011;3086;48.802;9.394;2023-04-01T03:14:22;1.60;;;1.50;;
6111;SDS011;3086;48.802;9.394;2023-04-01T03:17:45;1.50;;;1.40;;
6111;SDS011;3086;48.802;9.394;2023-04-01T03:21:14;1.30;;;1.30;;
6111;SDS011;3086;48.802;9.394;2023-04-01T03:24:36;1.83;;;1.70;;
6111;SDS011;3086;48.802;9.394;2023-04-01T03:27:58;1.20;;;1.20;;
6111;SDS011;3086;48.802;9.394;2023-04-01T03:31:20;1.97;;;1.30;;
6111;SDS011;3086;48.802;9.394;2023-04-01T03:34:43;1.67;;;1.30;;
6111;SDS011;3086;48.802;9.394;2023-04-01T03:38:04;2.80;;;1.40;;
6111;SDS011;3086;48.802;9.394;2023-04-01T03:41:26;2.10;;;1.30;;
6111;SDS011;3086;48.802;9.394;2023-04-01T03:44:47;1.47;;;1.37;;
6111;SDS011;3086;48.802;9.394;2023-04-01T03:48:09;2.63;;;1.50;;
6111;SDS011;3086;48.802;9.394;2023-04-01T03:51:32;1.20;;;1.20;;
6111;SDS011;3086;48.802;9.394;2023-04-01T03:54:54;1.30;;;1.20;;
6111;SDS011;3086;48.802;9.394;2023-04-01T03:58:15;1.13;;;1.13;;
6111;SDS011;3086;48.802;9.394;2023-04-01T04:01:37;2.00;;;1.50;;
6111;SDS011;3086;48.802;9.394;2023-04-01T04:04:58;1.80;;;1.23;;
6111;SDS011;3086;48.802;9.394;2023-04-01T04:08:21;1.20;;;1.20;;
6111;SDS011;3086;48.802;9.394;2023-04-01T04:11:42;1.80;;;1.27;;
6111;SDS011;3086;48.802;9.394;2023-04-01T04:15:04;1.60;;;1.50;;
6111;SDS011;3086;48.802;9.394;2023-04-01T04:18:26;1.50;;;1.33;;
6111;SDS011;3086;48.802;9.394;2023-04-01T04:21:48;1.47;;;1.37;;
6111;SDS011;3086;48.802;9.394;2023-04-01T04:25:11;1.70;;;1.60;;
6111;SDS011;3086;48.802;9.394;2023-04-01T04:28:32;1.53;;;1.43;;
6111;SDS011;3086;48.802;9.394;2023-04-01T04:31:54;1.63;;;1.40;;
6111;SDS011;3086;48.802;9.394;2023-04-01T04:35:16;1.30;;;1.20;;
6111;SDS011;3086;48.802;9.394;2023-04-01T04:38:37;1.33;;;1.30;;
6111;SDS011;3086;48.802;9.394;2023-04-01T04:42:00;1.20;;;1.20;;
6111;SDS011;3086;48.802;9.394;2023-04-01T04:45:21;1.70;;;1.60;;
6111;SDS011;3086;48.802;9.394;2023-04-01T04:48:43;1.40;;;1.40;;
6111;SDS011;3086;48.802;9.394;2023-04-01T04:52:04;1.33;;;1.23;;
6111;SDS011;3086;48.802;9.394;2023-04-01T04:55:26;1.40;;;1.30;;
6111;SDS011;3086;48.802;9.394;2023-04-01T04:58:49;1.57;;;1.47;;
6111;SDS011;3086;48.802;9.394;2023-04-01T05:02:11;1.80;;;1.40;;
6111;SDS011;3086;48.802;9.394;2023-04-01T05:05:32;1.30;;;1.30;;
6111;SDS011;3086;48.802;9.394;2023-04-01T05:08:54;1.80;;;1.67;;
6111;SDS011;3086;48.802;9.394;2023-04-01T05:12:15;1.30;;;1.30;;
6111;SDS011;3086;48.802;9.394;2023-04-01T05:15:38;1.40;;;1.30;;
6111;SDS011;3086;48.802;9.394;2023-04-01T05:19:00;2.33;;;1.53;;
6111;SDS011;3086;48.802;9.394;2023-04-01T05:22:21;1.50;;;1.40;;
6111;SDS011;3086;48.802;9.394;2023-04-01T05:25:43;2.67;;;1.50;;
6111;SDS011;3086;48.802;9.394;2023-04-01T05:29:05;3.13;;;1.70;;
6111;SDS011;3086;48.802;9.394;2023-04-01T05:32:30;1.70;;;1.60;;
6111;SDS011;3086;48.802;9.394;2023-04-01T05:35:51;2.30;;;1.70;;
6111;SDS011;3086;48.802;9.394;2023-04-01T05:39:13;2.67;;;2.47;;
6111;SDS011;3086;48.802;9.394;2023-04-01T05:42:35;2.57;;;1.70;;
6111;SDS011;3086;48.802;9.394;2023-04-01T05:45:56;2.00;;;1.80;;
6111;SDS011;3086;48.802;9.394;2023-04-01T05:49:19;4.60;;;1.73;;
6111;SDS011;3086;48.802;9.394;2023-04-01T05:52:41;2.00;;;1.60;;
6111;SDS011;3086;48.802;9.394;2023-04-01T05:56:02;1.87;;;1.60;;
6111;SDS011;3086;48.802;9.394;2023-04-01T05:59:24;2.50;;;1.50;;
6111;SDS011;3086;48.802;9.394;2023-04-01T06:02:46;2.60;;;1.63;;
6111;SDS011;3086;48.802;9.394;2023-04-01T06:06:11;3.20;;;2.33;;
6111;SDS011;3086;48.802;9.394;2023-04-01T06:09:35;2.57;;;1.90;;
6111;SDS011;3086;48.802;9.394;2023-04-01T06:12:59;3.23;;;2.00;;
6111;SDS011;3086;48.802;9.394;2023-04-01T06:16:25;1.63;;;1.53;;
6111;SDS011;3086;48.802;9.394;2023-04-01T06:19:51;2.23;;;1.90;;
6111;SDS011;3086;48.802;9.394;2023-04-01T06:23:20;2.73;;;1.70;;
6111;SDS011;3086;48.802;9.394;2023-04-01T06:26:49;3.13;;;2.03;;
6111;SDS011;3086;48.802;9.394;2023-04-01T06:30:24;3.73;;;2.03;;
6111;SDS011;3086;48.802;9.394;2023-04-01T06:33:55;3.57;;;2.10;;
6111;SDS011;3086;48.802;9.394;2023-04-01T06:37:28;2.30;;;2.10;;
6111;SDS011;3086;48.802;9.394;2023-04-01T06:41:11;1.70;;;1.60;;
6111;SDS011;3086;48.802;9.394;2023-04-01T06:44:43;1.60;;;1.50;;
6111;SDS011;3086;48.802;9.394;2023-04-01T06:48:17;1.70;;;1.60;;
6111;SDS011;3086;48.802;9.394;2023-04-01T06:51:48;3.13;;;1.73;;
6111;SDS011;3086;48.802;9.394;2023-04-01T06:55:17;1.77;;;1.50;;
6111;SDS011;3086;48.802;9.394;2023-04-01T06:58:48;1.43;;;1.37;;
6111;SDS011;3086;48.802;9.394;2023-04-01T07:02:16;1.80;;;1.47;;
6111;SDS011;3086;48.802;9.394;2023-04-01T07:05:42;1.87;;;1.37;;
6111;SDS011;3086;48.802;9.394;2023-04-01T07:09:06;1.77;;;1.50;;
6111;SDS011;3086;48.802;9.394;2023-04-01T07:12:33;1.83;;;1.60;;
6111;SDS011;3086;48.802;9.394;2023-04-01T07:16:05;2.07;;;1.50;;
6111;SDS011;3086;48.802;9.394;2023-04-01T07:19:31;1.60;;;1.50;;
6111;SDS011;3086;48.802;9.394;2023-04-01T07:22:55;1.97;;;1.33;;
6111;SDS011;3086;48.802;9.394;2023-04-01T07:26:18;1.50;;;1.40;;
6111;SDS011;3086;48.802;9.394;2023-04-01T07:29:41;1.40;;;1.30;;
6111;SDS011;3086;48.802;9.394;2023-04-01T07:33:05;1.60;;;1.50;;
6111;SDS011;3086;48.802;9.394;2023-04-01T07:36:32;1.33;;;1.23;;
6111;SDS011;3086;48.802;9.394;2023-04-01T07:39:56;2.37;;;1.40;;
6111;SDS011;3086;48.802;9.394;2023-04-01T07:43:30;1.40;;;1.30;;
6111;SDS011;3086;48.802;9.394;2023-04-01T07:47:00;1.50;;;1.40;;
6111;SDS011;3086;48.802;9.394;2023-04-01T07:50:30;1.23;;;1.23;;
6111;SDS011;3086;48.802;9.394;2023-04-01T07:53:54;1.37;;;1.27;;
6111;SDS011;3086;48.802;9.394;2023-04-01T07:57:22;1.60;;;1.50;;
6111;SDS011;3086;48.802;9.394;2023-04-01T08:00:48;2.33;;;1.40;;
6111;SDS011;3086;48.802;9.394;2023-04-01T08:04:17;3.03;;;1.20;;
6111;SDS011;3086;48.802;9.394;2023-04-01T08:07:47;1.10;;;1.10;;
6111;SDS011;3086;48.802;9.394;2023-04-01T08:11:16;2.23;;;2.03;;
6111;SDS011;3086;48.802;9.394;2023-04-01T08:14:50;1.60;;;1.50;;
6111;SDS011;3086;48.802;9.394;2023-04-01T08:18:16;1.70;;;1.60;;
6111;SDS011;3086;48.802;9.394;2023-04-01T08:21:45;1.47;;;1.37;;
6111;SDS011;3086;48.802;9.394;2023-04-01T08:25:11;1.33;;;1.30;;
6111;SDS011;3086;48.802;9.394;2023-04-01T08:28:35;3.10;;;1.50;;
6111;SDS011;3086;48.802;9.394;2023-04-01T08:31:59;1.70;;;1.50;;
6111;SDS011;3086;48.802;9.394;2023-04-01T08:35:26;1.33;;;1.23;;
6111;SDS011;3086;48.802;9.394;2023-04-01T08:38:51;1.50;;;1.40;;
6111;SDS011;3086;48.802;9.394;2023-04-01T08:42:29;1.50;;;1.40;;
6111;SDS011;3086;48.802;9.394;2023-04-01T08:46:13;5.23;;;1.67;;
6111;SDS011;3086;48.802;9.394;2023-04-01T08:49:45;2.37;;;1.50;;
6111;SDS011;3086;48.802;9.394;2023-04-01T08:53:17;2.10;;;1.30;;
6111;SDS011;3086;48.802;9.394;2023-04-01T08:56:47;1.77;;;1.47;;
6111;SDS011;3086;48.802;9.394;2023-04-01T09:00:18;2.53;;;1.53;;
6111;SDS011;3086;48.802;9.394;2023-04-01T09:07:38;1.80;;;1.40;;
6111;SDS011;3086;48.802;9.394;2023-04-01T09:11:06;1.33;;;1.30;;
6111;SDS011;3086;48.802;9.394;2023-04-01T09:14:36;2.33;;;1.23;;
6111;SDS011;3086;48.802;9.394;2023-04-01T09:18:16;1.63;;;1.47;;
6111;SDS011;3086;48.802;9.394;2023-04-01T09:25:45;1.60;;;1.50;;
6111;SDS011;3086;48.802;9.394;2023-04-01T09:29:11;3.87;;;1.70;;
6111;SDS011;3086;48.802;9.394;2023-04-01T09:36:33;1.47;;;1.40;;
6111;SDS011;3086;48.802;9.394;2023-04-01T09:40:13;1.50;;;1.40;;
6111;SDS011;3086;48.802;9.394;2023-04-01T09:43:42;1.50;;;1.40;;
6111;SDS011;3086;48.802;9.394;2023-04-01T09:47:16;2.07;;;1.37;;
6111;SDS011;3086;48.802;9.394;2023-04-01T09:50:50;1.40;;;1.30;;
6111;SDS011;3086;48.802;9.394;2023-04-01T09:54:23;1.27;;;1.27;;
6111;SDS011;3086;48.802;9.394;2023-04-01T09:58:00;1.37;;;1.30;;
6111;SDS011;3086;48.802;9.394;2023-04-01T10:01:40;1.40;;;1.30;;
6111;SDS011;3086;48.802;9.394;2023-04-01T10:09:21;1.23;;;1.10;;
6111;SDS011;3086;48.802;9.394;2023-04-01T10:20:59;1.20;;;1.20;;
6111;SDS011;3086;48.802;9.394;2023-04-01T10:24:37;1.40;;;1.30;;
6111;SDS011;3086;48.802;9.394;2023-04-01T10:32:17;1.20;;;1.10;;
6111;SDS011;3086;48.802;9.394;2023-04-01T10:36:10;1.00;;;1.00;;
6111;SDS011;3086;48.802;9.394;2023-04-01T10:44:06;1.30;;;1.30;;
6111;SDS011;3086;48.802;9.394;2023-04-01T10:47:45;1.10;;;1.10;;
6111;SDS011;3086;48.802;9.394;2023-04-01T10:51:22;1.30;;;1.20;;
6111;SDS011;3086;48.802;9.394;2023-04-01T10:54:49;1.50;;;1.20;;
6111;SDS011;3086;48.802;9.394;2023-04-01T10:58:16;1.00;;;1.00;;
6111;SDS011;3086;48.802;9.394;2023-04-01T11:02:09;1.10;;;1.10;;
6111;SDS011;3086;48.802;9.394;2023-04-01T11:09:58;1.00;;;1.00;;
6111;SDS011;3086;48.802;9.394;2023-04-01T11:17:26;1.07;;;1.07;;
6111;SDS011;3086;48.802;9.394;2023-04-01T11:28:59;1.17;;;1.17;;
6111;SDS011;3086;48.802;9.394;2023-04-01T11:32:31;1.07;;;1.00;;
6111;SDS011;3086;48.802;9.394;2023-04-01T11:36:11;1.30;;;1.30;;
6111;SDS011;3086;48.802;9.394;2023-04-01T11:39:40;1.10;;;1.10;;
6111;SDS011;3086;48.802;9.394;2023-04-01T11:43:09;1.00;;;1.00;;
6111;SDS011;3086;48.802;9.394;2023-04-01T11:46:37;1.20;;;1.20;;
6111;SDS011;3086;48.802;9.394;2023-04-01T11:50:12;1.40;;;1.30;;
6111;SDS011;3086;48.802;9.394;2023-04-01T11:53:42;0.87;;;0.87;;
6111;SDS011;3086;48.802;9.394;2023-04-01T11:57:09;1.23;;;1.10;;
6111;SDS011;3086;48.802;9.394;2023-04-01T12:00:56;0.90;;;0.90;;
6111;SDS011;3086;48.802;9.394;2023-04-01T12:04:26;0.90;;;0.90;;
6111;SDS011;3086;48.802;9.394;2023-04-01T12:08:02;1.57;;;1.03;;
6111;SDS011;3086;48.802;9.394;2023-04-01T12:11:29;0.83;;;0.83;;
6111;SDS011;3086;48.802;9.394;2023-04-01T12:14:59;1.40;;;1.30;;
6111;SDS011;3086;48.802;9.394;2023-04-01T12:18:28;0.90;;;0.90;;
6111;SDS011;3086;48.802;9.394;2023-04-01T12:21:58;1.70;;;1.20;;
6111;SDS011;3086;48.802;9.394;2023-04-01T12:25:37;1.00;;;1.00;;
6111;SDS011;3086;48.802;9.394;2023-04-01T12:29:07;1.00;;;1.00;;
6111;SDS011;3086;48.802;9.394;2023-04-01T12:32:35;1.20;;;1.20;;
6111;SDS011;3086;48.802;9.394;2023-04-01T12:36:04;1.17;;;1.10;;
6111;SDS011;3086;48.802;9.394;2023-04-01T12:47:14;0.93;;;0.93;;
6111;SDS011;3086;48.802;9.394;2023-04-01T12:58:38;0.90;;;0.90;;
6111;SDS011;3086;48.802;9.394;2023-04-01T13:02:18;1.00;;;1.00;;
6111;SDS011;3086;48.802;9.394;2023-04-01T13:05:58;1.17;;;1.17;;
6111;SDS011;3086;48.802;9.394;2023-04-01T13:09:48;1.20;;;1.20;;
6111;SDS011;3086;48.802;9.394;2023-04-01T13:13:18;1.23;;;1.10;;
6111;SDS011;3086;48.802;9.394;2023-04-01T13:16:48;0.83;;;0.83;;
6111;SDS011;3086;48.802;9.394;2023-04-01T13:20:14;1.20;;;1.20;;
6111;SDS011;3086;48.802;9.394;2023-04-01T13:23:43;1.00;;;1.00;;
6111;SDS011;3086;48.802;9.394;2023-04-01T13:27:13;0.93;;;0.93;;
6111;SDS011;3086;48.802;9.394;2023-04-01T13:30:38;1.17;;;1.17;;
6111;SDS011;3086;48.802;9.394;2023-04-01T13:34:08;1.40;;;1.40;;
6111;SDS011;3086;48.802;9.394;2023-04-01T13:37:42;1.10;;;1.10;;
6111;SDS011;3086;48.802;9.394;2023-04-01T13:41:14;1.20;;;1.20;;
6111;SDS011;3086;48.802;9.394;2023-04-01T13:44:43;1.20;;;1.20;;
6111;SDS011;3086;48.802;9.394;2023-04-01T13:48:27;1.30;;;1.20;;
6111;SDS011;3086;48.802;9.394;2023-04-01T13:51:57;1.10;;;1.10;;
6111;SDS011;3086;48.802;9.394;2023-04-01T13:55:35;1.10;;;1.10;;
6111;SDS011;3086;48.802;9.394;2023-04-01T14:02:54;1.10;;;1.10;;
6111;SDS011;3086;48.802;9.394;2023-04-01T14:06:29;0.93;;;0.93;;
6111;SDS011;3086;48.802;9.394;2023-04-01T14:10:04;1.10;;;1.00;;
6111;SDS011;3086;48.802;9.394;2023-04-01T14:13:30;0.97;;;0.97;;
6111;SDS011;3086;48.802;9.394;2023-04-01T14:16:59;0.90;;;0.90;;
6111;SDS011;3086;48.802;9.394;2023-04-01T14:20:36;1.00;;;1.00;;
6111;SDS011;3086;48.802;9.394;2023-04-01T14:24:03;1.70;;;1.60;;
6111;SDS011;3086;48.802;9.394;2023-04-01T14:27:42;2.83;;;2.10;;
6111;SDS011;3086;48.802;9.394;2023-04-01T14:34:57;1.20;;;1.20;;
6111;SDS011;3086;48.802;9.394;2023-04-01T14:38:26;1.17;;;1.17;;
6111;SDS011;3086;48.802;9.394;2023-04-01T14:41:54;1.10;;;1.10;;
6111;SDS011;3086;48.802;9.394;2023-04-01T14:45:29;1.00;;;1.00;;
6111;SDS011;3086;48.802;9.394;2023-04-01T14:49:14;1.00;;;1.00;;
6111;SDS011;3086;48.802;9.394;2023-04-01T14:52:37;1.30;;;1.20;;
6111;SDS011;3086;48.802;9.394;2023-04-01T14:56:00;1.03;;;1.03;;
6111;SDS011;3086;48.802;9.394;2023-04-01T14:59:26;1.40;;;1.30;;
6111;SDS011;3086;48.802;9.394;2023-04-01T15:02:53;1.70;;;1.17;;
6111;SDS011;3086;48.802;9.394;2023-04-01T15:06:35;1.10;;;1.10;;
6111;SDS011;3086;48.802;9.394;2023-04-01T15:10:04;1.17;;;1.17;;
6111;SDS011;3086;48.802;9.394;2023-04-01T15:13:43;1.20;;;1.20;;
6111;SDS011;3086;48.802;9.394;2023-04-01T15:17:23;1.10;;;1.10;;
6111;SDS011;3086;48.802;9.394;2023-04-01T15:21:04;1.10;;;1.10;;
6111;SDS011;3086;48.802;9.394;2023-04-01T15:24:35;1.20;;;1.20;;
6111;SDS011;3086;48.802;9.394;2023-04-01T15:28:04;1.30;;;1.30;;
6111;SDS011;3086;48.802;9.394;2023-04-01T15:31:31;1.10;;;1.10;;
6111;SDS011;3086;48.802;9.394;2023-04-01T15:34:55;1.00;;;1.00;;
6111;SDS011;3086;48.802;9.394;2023-04-01T15:38:24;1.90;;;1.80;;
6111;SDS011;3086;48.802;9.394;2023-04-01T15:42:04;1.57;;;1.47;;
6111;SDS011;3086;48.802;9.394;2023-04-01T15:45:38;1.20;;;1.20;;
6111;SDS011;3086;48.802;9.394;2023-04-01T15:49:04;1.40;;;1.40;;
6111;SDS011;3086;48.802;9.394;2023-04-01T15:52:36;1.47;;;1.40;;
6111;SDS011;3086;48.802;9.394;2023-04-01T15:56:13;2.70;;;2.50;;
6111;SDS011;3086;48.802;9.394;2023-04-01T15:59:43;1.50;;;1.40;;
6111;SDS011;3086;48.802;9.394;2023-04-01T16:03:20;1.60;;;1.50;;
6111;SDS011;3086;48.802;9.394;2023-04-01T16:06:54;2.20;;;2.00;;
6111;SDS011;3086;48.802;9.394;2023-04-01T16:10:28;1.20;;;1.20;;
6111;SDS011;3086;48.802;9.394;2023-04-01T16:14:02;1.70;;;1.60;;
6111;SDS011;3086;48.802;9.394;2023-04-01T16:17:36;1.70;;;1.60;;
6111;SDS011;3086;48.802;9.394;2023-04-01T16:21:11;2.03;;;1.90;;
6111;SDS011;3086;48.802;9.394;2023-04-01T16:24:35;1.50;;;1.40;;
6111;SDS011;3086;48.802;9.394;2023-04-01T16:28:09;2.00;;;1.80;;
6111;SDS011;3086;48.802;9.394;2023-04-01T16:31:42;1.67;;;1.57;;
6111;SDS011;3086;48.802;9.394;2023-04-01T16:35:14;1.73;;;1.63;;
6111;SDS011;3086;48.802;9.394;2023-04-01T16:38:43;2.20;;;1.77;;
6111;SDS011;3086;48.802;9.394;2023-04-01T16:42:11;1.30;;;1.20;;
6111;SDS011;3086;48.802;9.394;2023-04-01T16:45:38;2.00;;;1.90;;
6111;SDS011;3086;48.802;9.394;2023-04-01T16:52:57;1.47;;;1.37;;
6111;SDS011;3086;48.802;9.394;2023-04-01T16:56:22;3.00;;;2.80;;
6111;SDS011;3086;48.802;9.394;2023-04-01T16:59:46;1.63;;;1.53;;
6111;SDS011;3086;48.802;9.394;2023-04-01T17:03:11;4.10;;;3.70;;
6111;SDS011;3086;48.802;9.394;2023-04-01T17:06:39;3.67;;;3.33;;
6111;SDS011;3086;48.802;9.394;2023-04-01T17:10:10;2.53;;;2.33;;
6111;SDS011;3086;48.802;9.394;2023-04-01T17:13:43;1.80;;;1.70;;
6111;SDS011;3086;48.802;9.394;2023-04-01T17:17:19;2.60;;;2.40;;
6111;SDS011;3086;48.802;9.394;2023-04-01T17:20:48;3.83;;;2.53;;
6111;SDS011;3086;48.802;9.394;2023-04-01T17:24:19;3.17;;;2.60;;
6111;SDS011;3086;48.802;9.394;2023-04-01T17:27:50;2.10;;;1.90;;
6111;SDS011;3086;48.802;9.394;2023-04-01T17:31:14;2.40;;;2.20;;
6111;SDS011;3086;48.802;9.394;2023-04-01T17:34:48;3.53;;;2.10;;
6111;SDS011;3086;48.802;9.394;2023-04-01T17:38:17;2.83;;;2.30;;
6111;SDS011;3086;48.802;9.394;2023-04-01T17:41:48;2.30;;;2.10;;
6111;SDS011;3086;48.802;9.394;2023-04-01T17:45:17;2.50;;;1.90;;
6111;SDS011;3086;48.802;9.394;2023-04-01T17:48:44;2.77;;;2.50;;
6111;SDS011;3086;48.802;9.394;2023-04-01T17:52:13;1.80;;;1.70;;
6111;SDS011;3086;48.802;9.394;2023-04-01T17:59:34;1.77;;;1.63;;
6111;SDS011;3086;48.802;9.394;2023-04-01T18:03:00;3.00;;;2.80;;
6111;SDS011;3086;48.802;9.394;2023-04-01T18:06:33;3.67;;;2.70;;
6111;SDS011;3086;48.802;9.394;2023-04-01T18:10:01;4.37;;;2.30;;
6111;SDS011;3086;48.802;9.394;2023-04-01T18:13:44;2.17;;;1.97;;
6111;SDS011;3086;48.802;9.394;2023-04-01T18:17:20;1.83;;;1.73;;
6111;SDS011;3086;48.802;9.394;2023-04-01T18:20:47;3.23;;;2.00;;
6111;SDS011;3086;48.802;9.394;2023-04-01T18:24:16;2.87;;;2.23;;
6111;SDS011;3086;48.802;9.394;2023-04-01T18:27:41;3.87;;;2.40;;
6111;SDS011;3086;48.802;9.394;2023-04-01T18:31:06;6.37;;;5.70;;
6111;SDS011;3086;48.802;9.394;2023-04-01T18:34:39;6.47;;;4.60;;
6111;SDS011;3086;48.802;9.394;2023-04-01T18:38:07;2.47;;;2.00;;
6111;SDS011;3086;48.802;9.394;2023-04-01T18:41:34;3.03;;;2.43;;
6111;SDS011;3086;48.802;9.394;2023-04-01T18:44:57;2.20;;;2.10;;
6111;SDS011;3086;48.802;9.394;2023-04-01T18:48:33;1.87;;;1.77;;
6111;SDS011;3086;48.802;9.394;2023-04-01T18:52:07;1.70;;;1.60;;
6111;SDS011;3086;48.802;9.394;2023-04-01T18:55:33;2.03;;;1.80;;
6111;SDS011;3086;48.802;9.394;2023-04-01T18:58:59;2.57;;;1.87;;
6111;SDS011;3086;48.802;9.394;2023-04-01T19:02:25;1.90;;;1.80;;
6111;SDS011;3086;48.802;9.394;2023-04-01T19:05:50;1.80;;;1.70;;
6111;SDS011;3086;48.802;9.394;2023-04-01T19:09:18;1.50;;;1.40;;
6111;SDS011;3086;48.802;9.394;2023-04-01T19:12:43;1.70;;;1.60;;
6111;SDS011;3086;48.802;9.394;2023-04-01T19:16:09;1.70;;;1.60;;
6111;SDS011;3086;48.802;9.394;2023-04-01T19:19:38;1.80;;;1.70;;
6111;SDS011;3086;48.802;9.394;2023-04-01T19:23:28;1.73;;;1.63;;
6111;SDS011;3086;48.802;9.394;2023-04-01T19:27:09;1.83;;;1.60;;
6111;SDS011;3086;48.802;9.394;2023-04-01T19:30:39;2.13;;;1.80;;
6111;SDS011;3086;48.802;9.394;2023-04-01T19:34:07;3.20;;;1.73;;
6111;SDS011;3086;48.802;9.394;2023-04-01T19:37:38;1.77;;;1.63;;
6111;SDS011;3086;48.802;9.394;2023-04-01T19:41:02;1.87;;;1.57;;
6111;SDS011;3086;48.802;9.394;2023-04-01T19:44:30;1.70;;;1.60;;
6111;SDS011;3086;48.802;9.394;2023-04-01T19:48:00;2.00;;;1.90;;
6111;SDS011;3086;48.802;9.394;2023-04-01T19:51:28;2.23;;;1.70;;
6111;SDS011;3086;48.802;9.394;2023-04-01T19:54:53;1.60;;;1.50;;
6111;SDS011;3086;48.802;9.394;2023-04-01T19:58:20;5.80;;;3.30;;
6111;SDS011;3086;48.802;9.394;2023-04-01T20:01:48;2.87;;;2.30;;
6111;SDS011;3086;48.802;9.394;2023-04-01T20:05:25;3.50;;;1.80;;
6111;SDS011;3086;48.802;9.394;2023-04-01T20:08:55;3.00;;;1.70;;
6111;SDS011;3086;48.802;9.394;2023-04-01T20:12:27;2.70;;;1.83;;
6111;SDS011;3086;48.802;9.394;2023-04-01T20:15:58;1.67;;;1.57;;
6111;SDS011;3086;48.802;9.394;2023-04-01T20:19:28;1.90;;;1.73;;
6111;SDS011;3086;48.802;9.394;2023-04-01T20:22:56;1.90;;;1.70;;
6111;SDS011;3086;48.802;9.394;2023-04-01T20:26:24;2.47;;;1.70;;
6111;SDS011;3086;48.802;9.394;2023-04-01T20:29:55;1.70;;;1.60;;
6111;SDS011;3086;48.802;9.394;2023-04-01T20:37:18;1.73;;;1.30;;
6111;SDS011;3086;48.802;9.394;2023-04-01T20:40:50;1.40;;;1.40;;
6111;SDS011;3086;48.802;9.394;2023-04-01T20:44:12;1.30;;;1.20;;
6111;SDS011;3086;48.802;9.394;2023-04-01T20:47:37;1.50;;;1.40;;
6111;SDS011;3086;48.802;9.394;2023-04-01T20:51:04;2.50;;;1.53;;
6111;SDS011;3086;48.802;9.394;2023-04-01T20:54:33;1.50;;;1.40;;
6111;SDS011;3086;48.802;9.394;2023-04-01T20:58:08;1.63;;;1.50;;
6111;SDS011;3086;48.802;9.394;2023-04-01T21:01:34;1.80;;;1.50;;
6111;SDS011;3086;48.802;9.394;2023-04-01T21:05:20;1.60;;;1.50;;
6111;SDS011;3086;48.802;9.394;2023-04-01T21:08:57;1.37;;;1.37;;
6111;SDS011;3086;48.802;9.394;2023-04-01T21:12:28;1.30;;;1.30;;
6111;SDS011;3086;48.802;9.394;2023-04-01T21:15:56;1.70;;;1.60;;
6111;SDS011;3086;48.802;9.394;2023-04-01T21:19:30;1.40;;;1.30;;
6111;SDS011;3086;48.802;9.394;2023-04-01T21:23:11;1.83;;;1.40;;
6111;SDS011;3086;48.802;9.394;2023-04-01T21:26:45;2.83;;;2.30;;
6111;SDS011;3086;48.802;9.394;2023-04-01T21:30:17;2.10;;;2.00;;
6111;SDS011;3086;48.802;9.394;2023-04-01T21:33:49;1.70;;;1.60;;
6111;SDS011;3086;48.802;9.394;2023-04-01T21:37:22;1.70;;;1.60;;
6111;SDS011;3086;48.802;9.394;2023-04-01T21:40:57;2.23;;;1.60;;
6111;SDS011;3086;48.802;9.394;2023-04-01T21:44:38;2.43;;;1.63;;
6111;SDS011;3086;48.802;9.394;2023-04-01T21:48:31;1.93;;;1.83;;
6111;SDS011;3086;48.802;9.394;2023-04-01T21:52:07;1.40;;;1.40;;
6111;SDS011;3086;48.802;9.394;2023-04-01T22:00:00;2.13;;;2.00;;
6111;SDS011;3086;48.802;9.394;2023-04-01T22:03:43;2.50;;;1.50;;
6111;SDS011;3086;48.802;9.394;2023-04-01T22:07:17;2.20;;;2.00;;
6111;SDS011;3086;48.802;9.394;2023-04-01T22:10:41;1.73;;;1.63;;
6111;SDS011;3086;48.802;9.394;2023-04-01T22:14:08;2.93;;;1.60;;
6111;SDS011;3086;48.802;9.394;2023-04-01T22:17:32;1.70;;;1.60;;
6111;SDS011;3086;48.802;9.394;2023-04-01T22:20:59;8.83;;;1.97;;
6111;SDS011;3086;48.802;9.394;2023-04-01T22:24:28;2.27;;;2.07;;
6111;SDS011;3086;48.802;9.394;2023-04-01T22:27:55;1.80;;;1.70;;
6111;SDS011;3086;48.802;9.394;2023-04-01T22:31:21;1.50;;;1.40;;
6111;SDS011;3086;48.802;9.394;2023-04-01T22:34:47;1.60;;;1.50;;
6111;SDS011;3086;48.802;9.394;2023-04-01T22:38:15;1.60;;;1.50;;
6111;SDS011;3086;48.802;9.394;2023-04-01T22:41:48;2.37;;;1.50;;
6111;SDS011;3086;48.802;9.394;2023-04-01T22:45:32;2.07;;;1.93;;
6111;SDS011;3086;48.802;9.394;2023-04-01T22:49:03;1.50;;;1.50;;
6111;SDS011;3086;48.802;9.394;2023-04-01T22:52:31;1.30;;;1.30;;
6111;SDS011;3086;48.802;9.394;2023-04-01T22:55:59;1.53;;;1.43;;
6111;SDS011;3086;48.802;9.394;2023-04-01T22:59:25;2.23;;;1.40;;
6111;SDS011;3086;48.802;9.394;2023-04-01T23:02:59;1.47;;;1.43;;